Ever Ulysses — 9V7962 — position and weather

sailwx.info

Track history (hours):
 
Tides and Currents Weather Stations Pressure Air Temp Water Temp Dewpoint Dewpoint Depression Visibility Wind Speed Wind Dir Waves Ship Positions

Ever Ulysses

Last reported at 2015-Mar-06 21:33 UTC. Time now 2015-Mar-06 21:45 UTC.
Position N 47°23' W 122°23'.

Length 285 m; draft 12.1 m.

Type: Ship (hazmat cat D). MMSI: 564442000.

Date/timePositionNaut miles runAvg speedWind from/ knotsBaromVisibWave heightAir tempDewpointWater temp
2015-Mar-06 21:33N 47°23' W 122°23'1515.0
2015-Mar-06 20:33N 47°37' W 122°28'1918.7
2015-Mar-06 19:33N 47°56' W 122°31'1717.2
2015-Mar-06 18:33N 48°10' W 122°46'1716.9
2015-Mar-06 17:33N 48°11' W 123°12'1010.0
2015-Mar-06 16:33N 48°11' W 123°27'6 5.4
2015-Mar-06 15:31N 48°14' W 123°34'10 9.9
2015-Mar-06 14:33N 48°13' W 123°48'1211.7
2015-Mar-06 13:32N 48°16' W 124°05'1312.8
2015-Mar-06 12:32N 48°22' W 124°23'1313.5
2015-Mar-06 11:33N 48°28' W 124°41'1313.2
2015-Mar-06 10:33N 48°28' W 125°01'1414.1
2015-Mar-06 09:33N 48°28' W 125°22'1413.8
2015-Mar-06 08:33N 48°28' W 125°43'1413.5
2015-Mar-06 07:33N 48°28' W 126°03'1413.7
2015-Mar-06 06:34N 48°28' W 126°24'  
Track history (hours):
 
Tides and Currents Weather Stations Pressure Air Temp Water Temp Dewpoint Dewpoint Depression Visibility Wind Speed Wind Dir Waves Ship Positions

Ever Ulysses

Last reported at 2015-Mar-06 21:33 UTC. Time now 2015-Mar-06 21:45 UTC.
Position N 47°23' W 122°23'.

Length 285 m; draft 12.1 m.

Type: Ship (hazmat cat D). MMSI: 564442000.

Date/timePositionNaut miles runAvg speedWind from/ knotsBaromVisibWave heightAir tempDewpointWater temp
2015-Mar-06 21:33N 47°23' W 122°23'1515.0
2015-Mar-06 20:33N 47°37' W 122°28'1918.7
2015-Mar-06 19:33N 47°56' W 122°31'1717.2
2015-Mar-06 18:33N 48°10' W 122°46'1716.9
2015-Mar-06 17:33N 48°11' W 123°12'1010.0
2015-Mar-06 16:33N 48°11' W 123°27'6 5.4
2015-Mar-06 15:31N 48°14' W 123°34'10 9.9
2015-Mar-06 14:33N 48°13' W 123°48'1211.7
2015-Mar-06 13:32N 48°16' W 124°05'1312.8
2015-Mar-06 12:32N 48°22' W 124°23'1313.5
2015-Mar-06 11:33N 48°28' W 124°41'1313.2
2015-Mar-06 10:33N 48°28' W 125°01'1414.1
2015-Mar-06 09:33N 48°28' W 125°22'1413.8
2015-Mar-06 08:33N 48°28' W 125°43'1413.5
2015-Mar-06 07:33N 48°28' W 126°03'1413.7
2015-Mar-06 06:34N 48°28' W 126°24'  

Dump ship's entire track history